Terminal Aerodrome Forecast
Issued by NWS

Current Version | Previous Version | Graphics & Text | Print | Product List | Glossary On
Versions: 1 2 3 4 5 6 7 8 9 10 11 12 13 14
000
FTUS41 KILN 181135
TAFLCK
TAF
KLCK 181135Z 1812/1912 23006KT P6SM SCT007 SCT060
      TEMPO 1812/1814 4SM BR BKN006
     FM181700 26012G17KT P6SM SCT040
     FM190000 27007KT P6SM FEW200
     FM191100 VRB03KT P6SM BKN080=

USA.gov is the U.S. government's official web portal to all federal, state and local government web resources and services.